createdAt,value
2019-05-29T00:01:28.105Z,2.50
2019-05-29T00:03:59.242Z,2.30
2019-05-29T00:06:29.452Z,2.23
2019-05-29T00:08:59.609Z,2.43
2019-05-29T00:11:29.819Z,2.27
2019-05-29T00:14:15.538Z,2.40
2019-05-29T00:16:33.236Z,2.30
2019-05-29T00:19:03.389Z,2.37
2019-05-29T00:21:33.566Z,2.37
2019-05-29T00:24:03.727Z,2.40
2019-05-29T00:26:33.995Z,2.53
2019-05-29T00:29:05.547Z,2.33
2019-05-29T00:31:35.867Z,2.73
2019-05-29T00:34:06.987Z,2.53
2019-05-29T00:36:37.220Z,2.20
2019-05-29T00:39:08.647Z,2.00
2019-05-29T00:41:38.931Z,2.50
2019-05-29T00:44:11.138Z,2.53
2019-05-29T00:46:41.306Z,2.43
2019-05-29T00:49:11.784Z,2.30
2019-05-29T00:51:42.007Z,2.73
2019-05-29T00:54:12.534Z,2.60
2019-05-29T00:56:42.944Z,3.10
2019-05-29T00:59:13.172Z,3.03
2019-05-29T01:01:43.398Z,3.10
2019-05-29T01:04:13.645Z,2.70
2019-05-29T01:06:43.885Z,2.50
2019-05-29T01:09:14.428Z,2.43
2019-05-29T01:11:44.735Z,2.67
2019-05-29T01:14:15.171Z,2.77
2019-05-29T01:16:45.285Z,2.27
2019-05-29T01:19:24.787Z,2.37
2019-05-29T01:21:56.029Z,2.80
2019-05-29T01:24:26.488Z,2.47
2019-05-29T01:26:56.631Z,2.20
2019-05-29T01:29:26.819Z,2.33
2019-05-29T01:31:57.366Z,2.50
2019-05-29T01:34:27.665Z,2.60
2019-05-29T01:36:57.839Z,2.47
2019-05-29T01:39:27.987Z,2.70
2019-05-29T01:41:59.231Z,2.63
2019-05-29T01:44:29.449Z,2.43
2019-05-29T01:46:59.679Z,3.00
2019-05-29T01:49:33.799Z,2.77
2019-05-29T01:52:03.918Z,3.00
2019-05-29T01:54:35.096Z,2.93
2019-05-29T01:57:05.301Z,3.17
2019-05-29T01:59:35.508Z,2.60
2019-05-29T02:02:05.692Z,3.30
2019-05-29T02:04:35.884Z,2.90
2019-05-29T02:07:06.118Z,3.40
2019-05-29T02:09:36.336Z,3.03
2019-05-29T02:12:06.579Z,3.13
2019-05-29T02:14:36.724Z,3.63
2019-05-29T02:17:06.878Z,3.70
2019-05-29T02:19:37.184Z,3.80
2019-05-29T02:22:07.564Z,3.43
2019-05-29T02:24:37.743Z,3.90
2019-05-29T02:27:10.189Z,3.90
2019-05-29T02:29:40.388Z,4.37
2019-05-29T02:32:10.547Z,3.97
2019-05-29T02:34:40.736Z,3.30
2019-05-29T02:37:10.913Z,3.90
2019-05-29T02:39:42.789Z,3.73
2019-05-29T02:42:13.019Z,3.97
2019-05-29T02:44:43.194Z,3.23
2019-05-29T02:47:14.902Z,3.40
2019-05-29T02:49:45.064Z,3.40
2019-05-29T02:52:15.278Z,3.63
2019-05-29T02:54:45.533Z,3.10
2019-05-29T02:57:15.694Z,3.50
2019-05-29T02:59:46.858Z,3.33
2019-05-29T03:02:17.069Z,3.67
2019-05-29T03:04:47.330Z,3.47
2019-05-29T03:07:17.599Z,3.57
2019-05-29T03:09:47.767Z,3.40
2019-05-29T03:12:17.934Z,3.03
2019-05-29T03:14:48.181Z,3.87
2019-05-29T03:17:18.328Z,3.77
2019-05-29T03:19:48.483Z,3.20
2019-05-29T03:22:18.610Z,3.03
2019-05-29T03:24:48.723Z,3.60
2019-05-29T03:27:18.842Z,3.60
2019-05-29T03:29:50.058Z,3.07
2019-05-29T03:32:20.285Z,3.30
2019-05-29T03:34:50.463Z,3.90
2019-05-29T03:37:20.604Z,3.00
2019-05-29T03:39:50.786Z,3.00
2019-05-29T03:42:22.132Z,3.20
2019-05-29T03:44:52.304Z,3.90
2019-05-29T03:47:22.546Z,3.80
2019-05-29T03:49:53.840Z,4.20
2019-05-29T03:52:26.336Z,4.50
2019-05-29T03:54:58.236Z,4.33
2019-05-29T03:57:29.734Z,4.17
2019-05-29T04:00:00.304Z,4.60
2019-05-29T04:02:33.298Z,4.17
2019-05-29T04:05:03.937Z,4.43
2019-05-29T04:07:35.710Z,4.63
2019-05-29T04:10:06.640Z,3.70
2019-05-29T04:12:38.097Z,4.27
2019-05-29T04:15:09.776Z,3.90
2019-05-29T04:17:41.624Z,3.70
2019-05-29T04:20:11.882Z,3.67
2019-05-29T04:22:45.152Z,3.13
2019-05-29T04:25:15.425Z,3.20
2019-05-29T04:27:48.550Z,3.33
2019-05-29T04:30:19.742Z,3.53
2019-05-29T04:32:49.766Z,3.13
2019-05-29T04:35:19.940Z,2.83
2019-05-29T04:37:50.066Z,3.30
2019-05-29T04:40:20.205Z,2.97
2019-05-29T04:42:50.338Z,3.23
2019-05-29T04:45:20.599Z,2.90
2019-05-29T04:47:50.755Z,3.30
2019-05-29T04:50:20.911Z,2.60
2019-05-29T04:52:51.116Z,2.70
2019-05-29T04:55:22.829Z,2.60
2019-05-29T04:57:52.984Z,2.50
2019-05-29T05:00:24.153Z,2.80
2019-05-29T05:02:54.319Z,2.27
2019-05-29T05:05:24.451Z,2.13
2019-05-29T05:07:54.691Z,1.97
2019-05-29T05:10:38.176Z,2.00
2019-05-29T05:13:08.915Z,2.30
2019-05-29T05:15:40.620Z,2.43
2019-05-29T05:18:10.918Z,1.60
2019-05-29T05:20:41.327Z,1.87
2019-05-29T05:23:11.443Z,1.60
2019-05-29T05:25:41.596Z,2.30
2019-05-29T05:28:11.760Z,1.90
2019-05-29T05:30:41.984Z,1.83
2019-05-29T05:33:12.576Z,1.77
2019-05-29T05:35:42.789Z,1.93
2019-05-29T05:38:12.969Z,1.67
2019-05-29T05:40:43.833Z,2.03
2019-05-29T05:43:23.798Z,2.33
2019-05-29T05:45:45.840Z,2.47
2019-05-29T05:48:17.057Z,2.90
2019-05-29T05:50:47.254Z,4.00
2019-05-29T05:53:17.424Z,3.87
2019-05-29T05:55:47.592Z,4.27
2019-05-29T05:58:17.753Z,3.47
2019-05-29T06:00:49.134Z,3.17
2019-05-29T06:03:19.352Z,2.63
2019-05-29T06:05:49.564Z,3.10
2019-05-29T06:08:19.911Z,2.67
2019-05-29T06:10:51.321Z,2.67
2019-05-29T06:13:21.603Z,2.90
2019-05-29T06:15:51.814Z,2.50
2019-05-29T06:18:22.194Z,2.87
2019-05-29T06:20:54.388Z,2.63
2019-05-29T06:23:24.335Z,2.73
2019-05-29T06:25:54.515Z,3.17
2019-05-29T06:28:24.711Z,3.23
2019-05-29T06:30:54.855Z,3.97
2019-05-29T06:33:25.126Z,4.50
2019-05-29T06:35:55.329Z,4.17
2019-05-29T06:38:26.002Z,4.00
2019-05-29T06:40:57.781Z,4.83
2019-05-29T06:43:28.139Z,4.37
2019-05-29T06:45:58.311Z,4.40
2019-05-29T06:51:01.182Z,4.90
2019-05-29T06:53:32.451Z,4.67
2019-05-29T06:56:03.536Z,4.33
2019-05-29T06:58:33.990Z,4.20
2019-05-29T07:01:04.155Z,4.20
2019-05-29T07:03:35.603Z,3.50
2019-05-29T07:06:05.985Z,3.33
2019-05-29T07:08:40.178Z,3.63
2019-05-29T07:11:08.078Z,2.90
2019-05-29T07:13:41.890Z,3.37
2019-05-29T07:16:11.836Z,3.53
2019-05-29T07:19:18.352Z,2.47
2019-05-29T07:21:13.998Z,2.30
2019-05-29T07:23:46.137Z,1.80
2019-05-29T07:26:16.150Z,1.90
2019-05-29T07:29:02.975Z,1.50
2019-05-29T07:31:18.329Z,1.77
2019-05-29T07:33:48.653Z,1.73
2019-05-29T07:36:20.134Z,1.63
2019-05-29T07:39:02.487Z,2.00
2019-05-29T07:41:22.255Z,1.80
2019-05-29T07:43:52.980Z,1.87
2019-05-29T07:46:23.231Z,1.70
2019-05-29T07:48:58.018Z,1.73
2019-05-29T07:51:28.211Z,1.90
2019-05-29T07:53:58.366Z,1.60
2019-05-29T07:56:28.524Z,1.63
2019-05-29T07:59:03.660Z,1.70
2019-05-29T08:01:33.759Z,1.73
2019-05-29T08:04:04.032Z,1.60
2019-05-29T08:06:34.294Z,1.80
2019-05-29T08:09:06.121Z,1.40
2019-05-29T08:11:36.512Z,1.60
2019-05-29T08:14:06.793Z,1.50
2019-05-29T08:16:39.670Z,1.77
2019-05-29T08:19:10.004Z,1.57
2019-05-29T08:21:40.956Z,1.43
2019-05-29T08:24:12.052Z,1.93
2019-05-29T08:26:44.887Z,1.10
2019-05-29T08:29:15.145Z,2.13
2019-05-29T08:31:45.372Z,1.70
2019-05-29T08:34:15.553Z,1.60
2019-05-29T08:37:02.199Z,1.30
2019-05-29T08:39:34.023Z,1.30
2019-05-29T08:42:17.594Z,1.23
2019-05-29T08:44:24.292Z,1.23
2019-05-29T08:47:09.100Z,1.40
2019-05-29T08:49:27.891Z,1.00
2019-05-29T08:52:11.300Z,0.90
2019-05-29T08:54:30.059Z,0.90
2019-05-29T08:57:00.243Z,0.90
2019-05-29T08:59:31.182Z,0.70
2019-05-29T09:02:01.352Z,0.90
2019-05-29T09:04:31.540Z,0.73
2019-05-29T09:07:01.735Z,0.63
2019-05-29T09:09:31.888Z,0.80
2019-05-29T09:12:02.085Z,1.00
2019-05-29T09:14:32.391Z,0.80
2019-05-29T09:17:02.627Z,1.00
2019-05-29T09:19:32.915Z,1.00
2019-05-29T09:22:03.187Z,1.30
2019-05-29T09:24:33.441Z,1.07
2019-05-29T09:27:03.628Z,1.20
2019-05-29T09:29:33.808Z,1.13
2019-05-29T09:32:04.140Z,1.13
2019-05-29T09:34:34.300Z,0.87
2019-05-29T09:37:04.480Z,1.50
2019-05-29T09:39:34.773Z,1.40
2019-05-29T09:42:05.137Z,1.40
2019-05-29T09:44:39.455Z,1.90
2019-05-29T09:47:08.341Z,1.30
2019-05-29T09:49:38.536Z,1.67
2019-05-29T09:52:08.685Z,1.40
2019-05-29T09:54:38.834Z,1.60
2019-05-29T09:57:08.962Z,1.20
2019-05-29T09:59:39.144Z,1.50
2019-05-29T10:02:09.585Z,1.57
2019-05-29T10:04:40.675Z,1.67
2019-05-29T10:07:10.875Z,1.87
2019-05-29T10:09:41.028Z,1.70
2019-05-29T10:12:11.161Z,1.50
2019-05-29T10:14:41.345Z,1.63
2019-05-29T10:17:13.011Z,1.52
2019-05-29T10:19:43.591Z,2.03
2019-05-29T10:22:13.830Z,1.80
2019-05-29T10:24:44.035Z,2.10
2019-05-29T10:27:14.219Z,1.70
2019-05-29T10:29:44.896Z,2.33
2019-05-29T10:32:16.765Z,2.17
2019-05-29T10:34:48.398Z,1.87
2019-05-29T10:37:18.686Z,2.50
2019-05-29T10:39:49.030Z,2.10
2019-05-29T10:42:20.853Z,2.07
2019-05-29T10:44:51.359Z,2.20
2019-05-29T10:47:22.863Z,2.00
2019-05-29T10:49:53.855Z,1.40
2019-05-29T10:52:24.180Z,1.73
2019-05-29T10:54:54.486Z,1.67
2019-05-29T10:57:25.843Z,1.60
2019-05-29T10:59:55.982Z,1.70
2019-05-29T11:02:26.169Z,1.77
2019-05-29T11:04:59.120Z,1.60
2019-05-29T11:07:29.030Z,1.87
2019-05-29T11:09:59.805Z,1.50
2019-05-29T11:12:29.958Z,1.90
2019-05-29T11:15:00.150Z,1.65
2019-05-29T11:17:30.332Z,2.10
2019-05-29T11:20:00.563Z,1.65
2019-05-29T11:22:31.519Z,2.12
2019-05-29T11:25:21.125Z,2.40
2019-05-29T11:27:33.515Z,1.60
2019-05-29T11:30:03.895Z,2.27
2019-05-29T11:32:34.141Z,2.00
2019-05-29T11:35:04.624Z,1.77
2019-05-29T11:37:35.471Z,1.72
2019-05-29T11:40:06.157Z,2.53
2019-05-29T11:42:36.316Z,2.40
2019-05-29T11:45:09.253Z,2.40
2019-05-29T11:47:39.411Z,2.30
2019-05-29T11:50:19.214Z,2.52
2019-05-29T11:52:43.738Z,2.77
2019-05-29T11:55:14.504Z,2.20
2019-05-29T11:57:44.737Z,2.35
2019-05-29T12:00:20.264Z,2.60
2019-05-29T12:02:47.998Z,2.50
2019-05-29T12:05:18.401Z,2.72
2019-05-29T12:07:48.666Z,2.50
2019-05-29T12:10:18.988Z,2.90
2019-05-29T12:12:49.561Z,3.15
2019-05-29T12:15:19.978Z,3.00
2019-05-29T12:17:55.700Z,3.00
2019-05-29T12:20:27.956Z,2.52
2019-05-29T12:23:18.914Z,2.87
2019-05-29T12:25:26.125Z,2.13
2019-05-29T12:27:57.324Z,2.70
2019-05-29T12:30:27.669Z,2.73
2019-05-29T12:32:59.063Z,2.40
2019-05-29T12:35:32.479Z,2.37
2019-05-29T12:38:03.523Z,2.33
2019-05-29T12:40:33.821Z,2.65
2019-05-29T12:43:04.081Z,2.50
2019-05-29T12:45:34.389Z,2.60
2019-05-29T12:48:11.637Z,2.77
2019-05-29T12:50:36.733Z,3.10
2019-05-29T12:53:07.134Z,2.70
2019-05-29T12:55:37.503Z,2.90
2019-05-29T12:58:08.371Z,2.45
2019-05-29T13:00:38.609Z,2.70
2019-05-29T13:03:08.889Z,2.80
2019-05-29T13:05:39.033Z,2.95
2019-05-29T13:08:09.217Z,2.70
2019-05-29T13:10:39.370Z,3.25
2019-05-29T13:13:11.175Z,2.77
2019-05-29T13:15:41.489Z,3.10
2019-05-29T13:18:13.740Z,3.62
2019-05-29T13:20:43.959Z,3.62
2019-05-29T13:23:14.169Z,3.27
2019-05-29T13:25:44.524Z,2.90
2019-05-29T13:28:14.724Z,3.40
2019-05-29T13:30:44.964Z,3.08
2019-05-29T13:33:15.196Z,2.92
2019-05-29T13:35:46.960Z,3.60
2019-05-29T13:38:17.122Z,3.92
2019-05-29T13:40:47.324Z,3.47
2019-05-29T13:43:17.580Z,3.52
2019-05-29T13:45:47.753Z,4.05
2019-05-29T13:48:18.914Z,3.52
2019-05-29T13:50:49.391Z,3.33
2019-05-29T13:53:20.293Z,3.40
2019-05-29T13:55:50.456Z,3.30
2019-05-29T13:58:20.661Z,4.05
2019-05-29T14:00:50.888Z,3.70
2019-05-29T14:03:21.212Z,3.50
2019-05-29T14:05:51.537Z,3.77
2019-05-29T14:08:21.793Z,3.40
2019-05-29T14:10:52.011Z,2.87
2019-05-29T14:13:22.765Z,2.85
2019-05-29T14:15:53.205Z,3.87
2019-05-29T14:18:24.451Z,3.83
2019-05-29T14:20:56.205Z,3.60
2019-05-29T14:23:26.454Z,3.60
2019-05-29T14:25:56.654Z,4.17
2019-05-29T14:28:26.837Z,3.45
2019-05-29T14:30:57.040Z,2.83
2019-05-29T14:33:27.277Z,2.87
2019-05-29T14:35:57.447Z,2.87
2019-05-29T14:38:27.604Z,3.37
2019-05-29T14:40:57.784Z,3.35
2019-05-29T14:43:27.959Z,3.72
2019-05-29T14:45:58.162Z,4.12
2019-05-29T14:48:29.170Z,3.40
2019-05-29T14:51:03.611Z,3.65
2019-05-29T14:53:33.329Z,5.10
2019-05-29T14:56:04.454Z,3.83
2019-05-29T14:58:35.770Z,3.67
2019-05-29T15:01:07.160Z,5.40
2019-05-29T15:03:40.688Z,5.33
2019-05-29T15:06:11.729Z,4.92
2019-05-29T15:08:42.031Z,4.78
2019-05-29T15:11:14.101Z,5.50
2019-05-29T15:13:44.253Z,5.33
2019-05-29T15:16:15.772Z,5.20
2019-05-29T15:18:45.950Z,5.28
2019-05-29T15:21:16.121Z,5.50
2019-05-29T15:23:47.902Z,4.87
2019-05-29T15:26:20.108Z,5.83
2019-05-29T15:28:56.372Z,5.35
2019-05-29T15:31:26.592Z,5.37
2019-05-29T15:33:57.007Z,5.75
2019-05-29T15:36:27.237Z,5.80
2019-05-29T15:38:58.377Z,6.53
2019-05-29T15:41:28.639Z,5.60
2019-05-29T15:43:58.873Z,6.97
2019-05-29T15:46:30.766Z,7.15
2019-05-29T15:49:01.165Z,6.50
2019-05-29T15:51:31.547Z,6.42
2019-05-29T15:54:01.762Z,6.97
2019-05-29T15:56:31.971Z,7.08
2019-05-29T15:59:02.232Z,8.58
2019-05-29T16:01:32.476Z,8.25
2019-05-29T16:04:02.782Z,8.00
2019-05-29T16:06:32.941Z,9.40
2019-05-29T16:09:03.565Z,7.33
2019-05-29T16:11:33.900Z,8.67
2019-05-29T16:14:05.579Z,6.95
2019-05-29T16:16:35.791Z,6.67
2019-05-29T16:19:06.034Z,6.78
2019-05-29T16:21:36.201Z,9.60
2019-05-29T16:24:06.431Z,7.65
2019-05-29T16:26:36.581Z,7.20
2019-05-29T16:29:06.782Z,7.37
2019-05-29T16:31:40.272Z,7.08
2019-05-29T16:34:12.196Z,7.05
2019-05-29T16:36:42.505Z,8.13
2019-05-29T16:39:13.496Z,8.03
2019-05-29T16:41:43.765Z,6.97
2019-05-29T16:44:16.311Z,6.45
2019-05-29T16:46:46.657Z,6.28
2019-05-29T16:49:16.805Z,7.10
2019-05-29T16:51:47.101Z,7.50
2019-05-29T16:54:17.371Z,6.95
2019-05-29T16:56:47.568Z,6.25
2019-05-29T16:59:19.125Z,6.58
2019-05-29T17:01:49.489Z,7.20
2019-05-29T17:04:19.702Z,6.33
2019-05-29T17:06:49.921Z,7.25
2019-05-29T17:09:20.352Z,6.72
2019-05-29T17:11:50.565Z,6.80
2019-05-29T17:14:20.931Z,6.22
2019-05-29T17:16:51.252Z,7.22
2019-05-29T17:19:22.795Z,6.40
2019-05-29T17:21:53.439Z,6.47
2019-05-29T17:24:24.967Z,7.08
2019-05-29T17:26:55.385Z,8.08
2019-05-29T17:29:25.582Z,7.40
2019-05-29T17:31:55.811Z,7.50
2019-05-29T17:34:26.055Z,8.53
2019-05-29T17:36:58.105Z,8.63
2019-05-29T17:39:28.294Z,8.90
2019-05-29T17:41:58.516Z,9.03
2019-05-29T17:44:28.698Z,9.00
2019-05-29T17:46:58.849Z,9.70
2019-05-29T17:49:34.450Z,10.28
2019-05-29T17:52:01.062Z,10.48
2019-05-29T17:54:31.422Z,11.88
2019-05-29T17:57:03.414Z,11.48
2019-05-29T17:59:33.647Z,12.18
2019-05-29T18:02:03.893Z,12.55
2019-05-29T18:04:34.069Z,13.88
2019-05-29T18:07:05.432Z,13.78
2019-05-29T18:09:36.436Z,14.28
2019-05-29T18:12:07.668Z,13.80
2019-05-29T18:14:38.130Z,13.40
2019-05-29T18:17:08.745Z,12.82
2019-05-29T18:19:39.609Z,13.58
2019-05-29T18:22:10.515Z,14.63
2019-05-29T18:24:42.819Z,13.53
2019-05-29T18:27:13.648Z,14.00
2019-05-29T18:29:43.902Z,13.25
2019-05-29T18:32:14.097Z,12.77
2019-05-29T18:34:44.280Z,12.90
2019-05-29T18:37:19.995Z,12.53
2019-05-29T18:39:49.968Z,13.38
2019-05-29T18:42:25.595Z,14.00
2019-05-29T18:44:56.223Z,16.00
2019-05-29T18:47:27.261Z,16.33
2019-05-29T18:49:57.565Z,17.17
2019-05-29T18:52:27.830Z,17.53
2019-05-29T18:54:58.062Z,19.07
2019-05-29T18:57:29.092Z,17.73
2019-05-29T19:00:01.279Z,18.13
2019-05-29T19:02:33.047Z,19.27
2019-05-29T19:05:03.324Z,18.35
2019-05-29T19:07:33.595Z,19.37
2019-05-29T19:10:06.429Z,19.13
2019-05-29T19:12:36.508Z,18.67
2019-05-29T19:15:07.163Z,19.10
2019-05-29T19:18:03.904Z,18.17
2019-05-29T19:20:34.220Z,16.43
2019-05-29T19:23:04.650Z,15.43
2019-05-29T19:25:34.852Z,12.47
2019-05-29T19:28:06.652Z,12.47
2019-05-29T19:30:39.147Z,9.20
2019-05-29T19:33:21.109Z,9.17
2019-05-29T19:36:09.621Z,9.70
2019-05-29T19:38:51.833Z,7.77
2019-05-29T19:41:28.292Z,7.33
2019-05-29T19:44:00.846Z,7.27
2019-05-29T19:46:53.606Z,6.17
2019-05-29T19:49:16.699Z,6.30
2019-05-29T19:51:56.468Z,5.50
2019-05-29T19:54:27.448Z,4.50
2019-05-29T19:56:57.818Z,2.77
2019-05-29T19:59:40.111Z,2.37
2019-05-29T20:02:21.988Z,2.03
2019-05-29T20:05:01.162Z,1.20
2019-05-29T20:07:33.321Z,0.97
2019-05-29T20:10:10.931Z,0.90
2019-05-29T20:12:52.580Z,1.10
2019-05-29T20:15:25.707Z,0.73
2019-05-29T20:17:56.458Z,1.30
2019-05-29T20:20:28.168Z,0.87
2019-05-29T20:23:00.265Z,0.77
2019-05-29T20:25:33.276Z,0.87
2019-05-29T20:28:06.436Z,0.97
2019-05-29T20:30:36.472Z,1.33
2019-05-29T20:33:06.967Z,1.47
2019-05-29T20:35:37.355Z,1.97
2019-05-29T20:38:07.638Z,1.23
2019-05-29T20:40:39.323Z,1.97
2019-05-29T20:43:09.652Z,1.07
2019-05-29T20:45:39.869Z,0.77
2019-05-29T20:48:12.662Z,0.90
2019-05-29T20:50:43.290Z,0.90
2019-05-29T20:53:16.945Z,1.17
2019-05-29T20:55:47.189Z,1.00
2019-05-29T20:58:24.668Z,0.83
2019-05-29T21:00:51.036Z,0.90
2019-05-29T21:03:21.278Z,1.10
2019-05-29T21:05:51.535Z,1.17
2019-05-29T21:08:21.714Z,0.90
2019-05-29T21:10:52.127Z,0.90
2019-05-29T21:13:22.464Z,1.17
2019-05-29T21:15:52.629Z,1.30
2019-05-29T21:18:22.787Z,1.10
2019-05-29T21:20:53.007Z,1.00
2019-05-29T21:23:23.149Z,1.13
2019-05-29T21:25:53.469Z,1.40
2019-05-29T21:28:39.030Z,1.37
2019-05-29T21:30:55.650Z,1.30
2019-05-29T21:33:25.948Z,1.40
2019-05-29T21:35:56.222Z,1.40
2019-05-29T21:38:26.536Z,1.90
2019-05-29T21:40:56.801Z,1.20
2019-05-29T21:43:26.987Z,1.87
2019-05-29T21:45:57.250Z,1.50
2019-05-29T21:48:27.470Z,1.53
2019-05-29T21:50:57.648Z,1.63
2019-05-29T21:53:30.829Z,1.40
2019-05-29T21:56:01.017Z,1.60
2019-05-29T21:58:31.237Z,1.70
2019-05-29T22:01:01.566Z,1.47
2019-05-29T22:03:32.890Z,1.53
2019-05-29T22:06:03.165Z,1.50
2019-05-29T22:08:33.519Z,1.47
2019-05-29T22:11:03.693Z,1.60
2019-05-29T22:13:33.940Z,1.47
2019-05-29T22:16:04.115Z,1.37
2019-05-29T22:18:34.333Z,1.97
2019-05-29T22:21:04.484Z,1.60
2019-05-29T22:23:34.671Z,1.70
2019-05-29T22:26:04.816Z,1.50
2019-05-29T22:28:34.973Z,1.70
2019-05-29T22:31:05.148Z,1.70
2019-05-29T22:33:35.426Z,1.50
2019-05-29T22:36:05.754Z,2.27
2019-05-29T22:38:35.900Z,1.90
2019-05-29T22:41:06.140Z,2.30
2019-05-29T22:43:37.000Z,1.57
2019-05-29T22:46:07.151Z,1.93
2019-05-29T22:48:37.410Z,1.87
2019-05-29T22:51:07.745Z,1.40
2019-05-29T22:53:38.021Z,2.63
2019-05-29T22:56:08.550Z,1.83
2019-05-29T22:58:38.782Z,1.63
2019-05-29T23:01:08.907Z,1.70
2019-05-29T23:03:39.065Z,2.10
2019-05-29T23:06:09.186Z,1.73
2019-05-29T23:08:39.357Z,1.87
2019-05-29T23:11:09.583Z,2.30
2019-05-29T23:13:39.814Z,2.43
2019-05-29T23:16:09.994Z,2.20
2019-05-29T23:18:40.163Z,2.10
2019-05-29T23:21:10.328Z,1.83
2019-05-29T23:23:40.542Z,2.63
2019-05-29T23:26:10.669Z,2.00
2019-05-29T23:28:42.041Z,2.03
2019-05-29T23:31:12.216Z,2.40
2019-05-29T23:33:42.363Z,2.43
2019-05-29T23:36:12.575Z,2.50
2019-05-29T23:38:42.808Z,3.50
2019-05-29T23:41:13.856Z,3.33
2019-05-29T23:43:44.104Z,3.50
2019-05-29T23:46:14.281Z,3.17
2019-05-29T23:48:44.472Z,2.70
2019-05-29T23:51:15.645Z,3.47
2019-05-29T23:53:45.747Z,3.70
2019-05-29T23:56:15.911Z,3.83
2019-05-29T23:58:46.096Z,3.87
